Time;durP1;ratioP1;P1;durP2;ratioP2;P2;SDS_P1;SDS_P2;PMS_P1;PMS_P2;Temp;Humidity;BMP_temperature;BMP_pressure;BME280_temperature;BME280_humidity;BME280_pressure;Samples;Min_cycle;Max_cycle;Signal;HPM_P1;HPM_P2
2021/12/13 00:01:04;;;;;;;197.18;39.80;;;10.10;99.90;;;;;;5113313;28;20047;-73
2021/12/13 00:03:40;;;;;;;170.18;37.10;;;10.10;99.90;;;;;;5112680;28;20062;-73
2021/12/13 00:06:10;;;;;;;202.85;39.80;;;10.00;99.90;;;;;;5095200;28;20052;-73
2021/12/13 00:08:41;;;;;;;181.57;38.17;;;10.00;99.90;;;;;;5079581;28;20651;-73
2021/12/13 00:11:21;;;;;;;170.85;37.13;;;10.00;99.90;;;;;;5074758;28;20509;-73
2021/12/13 00:14:00;;;;;;;208.65;40.45;;;10.00;99.90;;;;;;5074192;28;20043;-74
2021/12/13 00:16:32;;;;;;;219.15;40.85;;;10.00;99.90;;;;;;5092105;28;20048;-73
2021/12/13 00:19:09;;;;;;;227.00;41.67;;;10.00;99.90;;;;;;5074348;28;20135;-73
2021/12/13 00:21:48;;;;;;;179.68;37.85;;;9.90;99.90;;;;;;5092204;28;20134;-73
2021/12/13 00:24:21;;;;;;;170.38;35.90;;;10.00;99.90;;;;;;5092557;28;20070;-73
2021/12/13 00:26:51;;;;;;;208.52;38.92;;;9.90;99.90;;;;;;5074328;28;20052;-73
2021/12/13 00:29:19;;;;;;;212.23;39.53;;;10.00;99.90;;;;;;5073688;28;20071;-73
2021/12/13 00:31:59;;;;;;;180.88;37.85;;;9.90;99.90;;;;;;5092346;28;20044;-73
2021/12/13 00:34:33;;;;;;;225.95;39.80;;;9.90;99.90;;;;;;5074094;28;20156;-74
2021/12/13 00:37:12;;;;;;;180.40;35.45;;;10.00;99.90;;;;;;5057276;28;20044;-73
2021/12/13 00:39:45;;;;;;;190.02;37.25;;;9.90;99.90;;;;;;5074207;28;20051;-73
2021/12/13 00:42:12;;;;;;;124.47;31.50;;;9.90;99.90;;;;;;5073373;28;20061;-73
2021/12/13 00:44:48;;;;;;;160.10;33.38;;;10.00;99.90;;;;;;5074080;28;20054;-74
2021/12/13 00:47:27;;;;;;;145.77;32.58;;;10.00;99.90;;;;;;5073630;28;20047;-73
2021/12/13 00:50:05;;;;;;;156.10;30.23;;;10.00;99.90;;;;;;5073966;28;20044;-73
2021/12/13 00:52:32;;;;;;;108.22;28.95;;;10.00;99.90;;;;;;5073760;28;20048;-73
2021/12/13 00:54:59;;;;;;;115.15;28.42;;;10.00;99.90;;;;;;5056783;28;20082;-73
2021/12/13 00:57:31;;;;;;;107.00;27.73;;;10.00;99.90;;;;;;5073139;28;20044;-73
2021/12/13 01:00:04;;;;;;;95.63;26.50;;;10.00;99.90;;;;;;5073446;28;20751;-73
2021/12/13 01:02:38;;;;;;;131.82;30.50;;;10.00;99.90;;;;;;5072925;28;20552;-73
2021/12/13 01:05:09;;;;;;;;;;;10.00;99.90;;;;;;5073639;28;20636;-73
2021/12/13 01:07:53;;;;;;;101.45;26.23;;;10.00;99.90;;;;;;5098103;28;19963;-73
2021/12/13 01:10:53;;;;;;;87.05;24.30;;;10.00;99.90;;;;;;5093798;28;20413;-74
2021/12/13 01:13:22;;;;;;;114.55;27.00;;;10.10;99.90;;;;;;5084391;28;20123;-73
2021/12/13 01:15:59;;;;;;;117.82;29.38;;;10.00;99.90;;;;;;5073195;28;20044;-73
2021/12/13 01:18:55;;;;;;;109.13;28.90;;;10.00;99.90;;;;;;5072818;28;20094;-74
2021/12/13 01:21:39;;;;;;;119.35;28.00;;;10.00;99.90;;;;;;5091221;28;20052;-73
2021/12/13 01:24:13;;;;;;;106.88;27.42;;;10.00;99.90;;;;;;5072938;28;20502;-73
2021/12/13 01:26:47;;;;;;;147.02;31.85;;;10.00;99.90;;;;;;5072999;28;20101;-73
2021/12/13 01:29:20;;;;;;;116.18;30.42;;;10.00;99.90;;;;;;5090997;28;20047;-73
2021/12/13 01:31:54;;;;;;;112.70;28.88;;;10.00;99.90;;;;;;5091053;28;20051;-74
2021/12/13 01:34:21;;;;;;;141.75;30.77;;;10.00;99.90;;;;;;5073381;28;20048;-73
2021/12/13 01:37:02;;;;;;;144.20;32.85;;;10.00;99.90;;;;;;5072633;28;20094;-74
2021/12/13 01:39:29;;;;;;;135.93;32.72;;;9.90;99.90;;;;;;5072725;28;20084;-73
2021/12/13 01:42:22;;;;;;;117.57;31.42;;;9.90;99.90;;;;;;5091232;28;20062;-73
2021/12/13 01:44:53;;;;;;;126.35;30.88;;;9.90;99.90;;;;;;5090817;28;20613;-73
2021/12/13 01:47:23;;;;;;;123.15;32.25;;;9.90;99.90;;;;;;5098527;28;20086;-74
2021/12/13 01:49:52;;;;;;;117.40;30.60;;;9.90;99.90;;;;;;5090687;28;20781;-73
2021/12/13 01:52:25;;;;;;;119.80;32.75;;;9.90;99.90;;;;;;5090783;28;20044;-73
2021/12/13 01:54:52;;;;;;;111.50;33.30;;;9.90;99.90;;;;;;5093023;28;20482;-73
2021/12/13 01:57:25;;;;;;;128.30;33.50;;;9.90;99.90;;;;;;5092754;28;20040;-73
2021/12/13 02:00:07;;;;;;;123.13;33.60;;;9.90;99.90;;;;;;5092682;28;20046;-73
2021/12/13 02:02:37;;;;;;;129.05;34.47;;;9.90;99.90;;;;;;5090119;28;20043;-73
2021/12/13 02:05:02;;;;;;;143.48;34.75;;;9.90;99.90;;;;;;5089342;28;20084;-73
2021/12/13 02:07:41;;;;;;;115.05;33.03;;;9.90;99.90;;;;;;5089213;28;20099;-73
2021/12/13 02:10:12;;;;;;;151.68;37.22;;;9.90;99.90;;;;;;5089222;28;20052;-73
2021/12/13 02:12:41;;;;;;;140.57;36.72;;;9.90;99.90;;;;;;5088779;28;20040;-73
2021/12/13 02:17:57;;;;;;;123.80;34.13;;;9.90;99.90;;;;;;5088812;28;20059;-73
2021/12/13 02:20:30;;;;;;;123.53;34.00;;;9.90;99.90;;;;;;5091926;28;20098;-73
2021/12/13 02:22:57;;;;;;;124.53;35.17;;;10.00;99.90;;;;;;5092348;28;20070;-73
2021/12/13 02:25:30;;;;;;;88.63;29.45;;;10.00;99.90;;;;;;5092042;28;20043;-73
2021/12/13 02:27:58;;;;;;;133.60;33.45;;;10.00;99.90;;;;;;5091937;28;20549;-73
2021/12/13 02:30:41;;;;;;;107.53;32.30;;;10.00;99.90;;;;;;5092523;28;20485;-73
2021/12/13 02:33:10;;;;;;;92.72;28.98;;;10.00;99.90;;;;;;5091907;28;20090;-73
2021/12/13 02:35:41;;;;;;;115.22;31.60;;;10.00;99.90;;;;;;5092223;28;20449;-73
2021/12/13 02:38:10;;;;;;;87.10;29.52;;;10.00;99.90;;;;;;5092147;28;20536;-73
2021/12/13 02:40:36;;;;;;;98.15;31.55;;;10.00;99.90;;;;;;5110050;28;20459;-73
2021/12/13 02:43:07;;;;;;;91.28;28.10;;;10.10;99.90;;;;;;5092186;28;20039;-73
2021/12/13 02:45:43;;;;;;;100.60;30.08;;;10.10;99.90;;;;;;5092193;28;20442;-73
2021/12/13 02:48:24;;;;;;;104.22;30.83;;;10.10;99.90;;;;;;5090454;28;20052;-73
2021/12/13 02:50:58;;;;;;;115.20;31.67;;;10.10;99.90;;;;;;5090963;28;20119;-73
2021/12/13 02:53:50;;;;;;;113.32;31.92;;;10.10;99.90;;;;;;5074478;28;20131;-73
2021/12/13 02:56:18;;;;;;;122.88;31.25;;;10.10;99.90;;;;;;5078058;28;20139;-73
2021/12/13 02:58:46;;;;;;;105.07;31.08;;;10.00;99.90;;;;;;5070913;28;20063;-73
2021/12/13 03:01:15;;;;;;;80.43;27.83;;;10.00;99.90;;;;;;5089059;28;20470;-73
2021/12/13 03:03:45;;;;;;;97.63;29.58;;;10.10;99.90;;;;;;5088902;28;20086;-73
2021/12/13 03:06:18;;;;;;;87.07;30.35;;;10.00;99.90;;;;;;5089581;28;20441;-73
2021/12/13 03:08:49;;;;;;;115.32;32.45;;;10.00;99.90;;;;;;5071389;28;20521;-73
2021/12/13 03:11:31;;;;;;;101.45;29.83;;;10.00;99.90;;;;;;5055106;28;20130;-73
2021/12/13 03:14:07;;;;;;;106.30;31.60;;;10.00;99.90;;;;;;5071102;28;20067;-73
2021/12/13 03:16:51;;;;;;;107.15;31.15;;;10.10;99.90;;;;;;5089202;28;20044;-73
2021/12/13 03:19:42;;;;;;;96.75;32.05;;;10.00;99.90;;;;;;5071113;28;20139;-73
2021/12/13 03:22:26;;;;;;;80.18;28.85;;;10.00;99.90;;;;;;5070836;28;20139;-73
2021/12/13 03:25:29;;;;;;;114.20;32.55;;;10.00;99.90;;;;;;5071057;28;20055;-73
2021/12/13 03:28:11;;;;;;;118.57;33.55;;;10.00;99.90;;;;;;5093666;28;20063;-73
2021/12/13 03:31:01;;;;;;;105.28;32.17;;;10.00;99.90;;;;;;5075653;28;20048;-73
2021/12/13 03:33:35;;;;;;;93.63;31.63;;;9.90;99.90;;;;;;5075338;28;20532;-73
2021/12/13 03:36:06;;;;;;;94.20;31.73;;;10.00;99.90;;;;;;5075391;28;20055;-73
2021/12/13 03:38:40;;;;;;;115.20;33.53;;;10.00;99.90;;;;;;5093257;28;20055;-73
2021/12/13 03:41:13;;;;;;;99.68;32.28;;;9.90;99.90;;;;;;5075378;28;20044;-73
2021/12/13 03:44:05;;;;;;;116.05;32.30;;;9.90;99.90;;;;;;5074607;28;20130;-73
2021/12/13 03:46:33;;;;;;;93.05;31.58;;;9.90;99.90;;;;;;5068079;28;20134;-73
2021/12/13 03:49:00;;;;;;;113.95;34.33;;;9.80;99.90;;;;;;5092978;28;20064;-73
2021/12/13 03:51:32;;;;;;;118.03;34.55;;;9.90;99.90;;;;;;5075138;28;20048;-73
2021/12/13 03:54:01;;;;;;;103.93;33.35;;;9.80;99.90;;;;;;5074712;28;20177;-73
2021/12/13 03:56:34;;;;;;;119.30;34.67;;;9.80;99.90;;;;;;5074713;28;20048;-73
2021/12/13 03:59:08;;;;;;;92.77;32.67;;;9.80;99.90;;;;;;5092864;28;20040;-73
2021/12/13 04:01:41;;;;;;;107.03;32.28;;;9.80;99.90;;;;;;5093148;28;20048;-73
2021/12/13 04:04:35;;;;;;;102.82;32.35;;;9.70;99.90;;;;;;5092866;28;20070;-73
2021/12/13 04:07:09;;;;;;;99.13;32.58;;;9.70;99.90;;;;;;5081693;28;20056;-73
2021/12/13 04:09:35;;;;;;;115.95;35.08;;;9.70;99.90;;;;;;5092568;28;20095;-73
2021/12/13 04:12:05;;;;;;;109.95;34.33;;;9.70;99.90;;;;;;5092805;28;20429;-73
2021/12/13 04:14:38;;;;;;;107.72;33.50;;;9.70;99.90;;;;;;5074748;28;20051;-73
2021/12/13 04:17:34;;;;;;;95.30;33.60;;;9.70;99.90;;;;;;5074744;28;20140;-73
2021/12/13 04:20:04;;;;;;;93.70;33.00;;;9.60;99.90;;;;;;5092419;28;20040;-73
2021/12/13 04:22:33;;;;;;;117.80;35.53;;;9.60;99.90;;;;;;5073510;28;20553;-74
2021/12/13 04:25:23;;;;;;;108.75;33.70;;;9.60;99.90;;;;;;5091292;28;20059;-74
2021/12/13 04:28:04;;;;;;;100.85;32.08;;;9.60;99.90;;;;;;5065602;28;20060;-74
2021/12/13 04:30:33;;;;;;;85.57;30.08;;;9.60;99.90;;;;;;5073035;28;20134;-74
2021/12/13 04:33:04;;;;;;;81.22;29.95;;;9.50;99.90;;;;;;5091456;28;20106;-74
2021/12/13 04:35:31;;;;;;;86.90;31.63;;;9.60;99.90;;;;;;5090982;28;20094;-74
2021/12/13 04:38:00;;;;;;;85.13;29.42;;;9.60;99.90;;;;;;5090420;28;20127;-74
2021/12/13 04:40:30;;;;;;;74.82;28.25;;;9.60;99.90;;;;;;5090979;28;20051;-74
2021/12/13 04:43:07;;;;;;;72.18;26.42;;;9.60;99.90;;;;;;5072411;28;20044;-74
2021/12/13 04:45:34;;;;;;;69.85;25.90;;;9.60;99.90;;;;;;5091232;28;20044;-73
2021/12/13 04:48:18;;;;;;;66.38;23.95;;;9.60;99.90;;;;;;5091397;28;20847;-73
2021/12/13 04:50:52;;;;;;;54.75;21.92;;;9.50;99.90;;;;;;5091112;28;20047;-73
2021/12/13 04:53:38;;;;;;;54.63;21.45;;;9.50;99.90;;;;;;5091319;28;20414;-73
2021/12/13 04:56:10;;;;;;;46.17;19.55;;;9.50;99.90;;;;;;5090948;28;20093;-73
2021/12/13 04:58:38;;;;;;;50.78;20.77;;;9.50;99.90;;;;;;5090977;28;20390;-73
2021/12/13 05:01:07;;;;;;;52.85;20.27;;;9.50;99.90;;;;;;5090984;28;20052;-73
2021/12/13 05:03:37;;;;;;;54.67;19.60;;;9.50;99.90;;;;;;5090976;28;20123;-73
2021/12/13 05:06:10;;;;;;;57.15;20.55;;;9.50;99.90;;;;;;5072338;28;20051;-73
2021/12/13 05:08:38;;;;;;;48.78;21.15;;;9.50;99.90;;;;;;5072717;28;20064;-74
2021/12/13 05:11:06;;;;;;;37.05;17.60;;;9.50;99.90;;;;;;5072938;28;20459;-74
2021/12/13 05:13:37;;;;;;;38.97;17.70;;;9.50;99.90;;;;;;5073206;28;20055;-73
2021/12/13 05:16:09;;;;;;;39.47;16.45;;;9.50;99.90;;;;;;5072453;28;20090;-73
2021/12/13 05:18:43;;;;;;;34.88;15.70;;;9.50;99.90;;;;;;5071845;28;20423;-73
2021/12/13 05:21:21;;;;;;;35.35;16.35;;;9.50;99.90;;;;;;5090565;28;20123;-73
2021/12/13 05:24:01;;;;;;;33.67;15.13;;;9.50;99.90;;;;;;5090708;28;20094;-73
2021/12/13 05:26:43;;;;;;;34.78;14.18;;;9.50;99.90;;;;;;5072769;28;20486;-73
2021/12/13 05:29:37;;;;;;;41.47;15.77;;;9.50;99.90;;;;;;5073039;28;20127;-74
2021/12/13 05:32:08;;;;;;;27.08;12.52;;;9.50;99.90;;;;;;5073188;28;20490;-73
2021/12/13 05:34:39;;;;;;;31.52;13.90;;;9.50;99.90;;;;;;5073126;28;20039;-74
2021/12/13 05:37:07;;;;;;;30.45;13.00;;;9.50;99.90;;;;;;5072993;28;20413;-74
2021/12/13 05:39:35;;;;;;;25.33;12.20;;;9.40;99.90;;;;;;5072761;28;20054;-74
2021/12/13 05:42:07;;;;;;;22.05;10.68;;;9.40;99.90;;;;;;5056299;28;20048;-73
2021/12/13 05:44:36;;;;;;;25.52;10.60;;;9.40;99.90;;;;;;5090493;28;20038;-73
2021/12/13 05:47:15;;;;;;;27.05;10.80;;;9.40;99.90;;;;;;5072782;28;20779;-73
2021/12/13 05:49:44;;;;;;;28.20;11.68;;;9.40;99.90;;;;;;5071598;28;20134;-74
2021/12/13 05:52:24;;;;;;;21.80;9.73;;;9.40;99.90;;;;;;5072864;28;20075;-73
2021/12/13 05:55:00;;;;;;;20.73;9.13;;;9.40;99.90;;;;;;5072740;28;21039;-74
2021/12/13 05:57:32;;;;;;;14.32;8.13;;;9.40;99.90;;;;;;5072246;28;20048;-73
2021/12/13 06:00:08;;;;;;;14.85;8.00;;;9.40;99.90;;;;;;5072057;28;20131;-74
2021/12/13 06:02:52;;;;;;;14.25;7.43;;;9.40;99.90;;;;;;5056221;28;20044;-73
2021/12/13 06:05:21;;;;;;;23.02;7.88;;;9.40;99.90;;;;;;5090763;28;20050;-73
2021/12/13 06:08:04;;;;;;;14.98;6.25;;;9.40;99.90;;;;;;5077120;28;20391;-74
2021/12/13 06:10:49;;;;;;;16.27;6.65;;;9.40;99.90;;;;;;5090325;28;20472;-73
2021/12/13 06:13:43;;;;;;;13.68;6.95;;;9.40;99.90;;;;;;5090519;28;20456;-74
2021/12/13 06:16:18;;;;;;;14.02;6.63;;;9.40;99.90;;;;;;5089315;28;20044;-73
2021/12/13 06:19:06;;;;;;;18.85;8.45;;;9.40;99.90;;;;;;5088827;28;20055;-74
2021/12/13 06:21:49;;;;;;;16.48;7.40;;;9.40;99.90;;;;;;5089326;28;20052;-73
2021/12/13 06:24:25;;;;;;;15.52;7.80;;;9.40;99.90;;;;;;5089013;28;20054;-74
2021/12/13 06:27:00;;;;;;;15.75;7.93;;;9.40;99.90;;;;;;5088798;28;20056;-74
2021/12/13 06:29:51;;;;;;;19.27;8.77;;;9.40;99.90;;;;;;5089210;28;20048;-74
2021/12/13 06:32:34;;;;;;;16.85;8.38;;;9.40;99.90;;;;;;5088586;28;20198;-73
2021/12/13 06:35:29;;;;;;;16.77;8.20;;;9.30;99.90;;;;;;5088957;28;20105;-73
2021/12/13 06:37:55;;;;;;;17.90;9.18;;;9.40;99.90;;;;;;5071796;28;20462;-73
2021/12/13 06:40:29;;;;;;;22.95;9.43;;;9.40;99.90;;;;;;5090248;28;20062;-73
2021/12/13 06:42:59;;;;;;;18.63;9.30;;;9.30;99.90;;;;;;5089847;28;20040;-74
2021/12/13 06:45:32;;;;;;;17.48;9.18;;;9.40;99.90;;;;;;5088633;28;20410;-72
2021/12/13 06:48:01;;;;;;;22.80;10.35;;;9.40;99.90;;;;;;5090070;28;20048;-72
2021/12/13 06:50:38;;;;;;;20.23;9.88;;;9.40;99.90;;;;;;5090019;28;20048;-72
2021/12/13 06:53:19;;;;;;;18.40;10.20;;;9.30;99.90;;;;;;5086468;28;20528;-71
2021/12/13 06:55:46;;;;;;;21.17;11.35;;;9.40;99.90;;;;;;5086973;28;20450;-73
2021/12/13 06:58:29;;;;;;;26.67;11.27;;;9.30;99.90;;;;;;5088631;28;20044;-73
2021/12/13 07:01:03;;;;;;;21.23;10.75;;;9.40;99.90;;;;;;5088341;28;20054;-73
2021/12/13 07:03:34;;;;;;;;;;;9.30;99.90;;;;;;5089344;28;20735;-74
2021/12/13 07:06:02;;;;;;;22.10;11.65;;;9.30;99.90;;;;;;5087830;28;20057;-74
2021/12/13 07:08:35;;;;;;;21.73;10.00;;;9.30;99.90;;;;;;5103413;28;20052;-74
2021/12/13 07:11:12;;;;;;;22.75;11.10;;;9.30;99.90;;;;;;5109555;28;20527;-74
2021/12/13 07:13:47;;;;;;;22.90;11.90;;;9.30;99.90;;;;;;5091430;28;20043;-74
2021/12/13 07:16:26;;;;;;;23.95;11.93;;;9.30;99.90;;;;;;5109713;28;20047;-74
2021/12/13 07:19:18;;;;;;;22.58;11.68;;;9.30;99.90;;;;;;5091430;28;20081;-73
2021/12/13 07:21:57;;;;;;;25.38;12.57;;;9.30;99.90;;;;;;5091202;28;20051;-73
2021/12/13 07:24:30;;;;;;;25.80;12.55;;;9.30;99.90;;;;;;5091199;28;20051;-73
2021/12/13 07:27:08;;;;;;;27.33;13.23;;;9.30;99.90;;;;;;5109666;28;20055;-73
2021/12/13 07:29:34;;;;;;;28.75;13.70;;;9.20;99.90;;;;;;5108718;28;20044;-74
2021/12/13 07:32:11;;;;;;;25.13;12.35;;;9.20;99.90;;;;;;5091490;28;20054;-74
2021/12/13 07:35:01;;;;;;;26.58;12.35;;;9.20;99.90;;;;;;5091442;28;20078;-74
2021/12/13 07:37:39;;;;;;;25.00;12.18;;;9.20;99.90;;;;;;5091447;28;20093;-74
2021/12/13 07:40:23;;;;;;;25.30;13.10;;;9.20;99.90;;;;;;5108863;28;20417;-74
2021/12/13 07:43:00;;;;;;;24.17;12.77;;;9.20;99.90;;;;;;5074569;28;20063;-74
2021/12/13 07:45:47;;;;;;;25.50;12.45;;;9.20;99.90;;;;;;5091562;28;20173;-74
2021/12/13 07:48:23;;;;;;;27.95;12.45;;;9.20;99.90;;;;;;5091147;28;20039;-74
2021/12/13 07:51:10;;;;;;;28.17;13.48;;;9.20;99.90;;;;;;5091250;28;20051;-74
2021/12/13 07:53:45;;;;;;;23.77;12.15;;;9.20;99.90;;;;;;5090167;28;20056;-74
2021/12/13 07:56:33;;;;;;;23.15;13.10;;;9.20;99.90;;;;;;5071204;28;20040;-74
2021/12/13 07:59:24;;;;;;;27.23;13.55;;;9.20;99.90;;;;;;5053933;28;20127;-74
2021/12/13 08:01:58;;;;;;;24.02;12.75;;;9.20;99.90;;;;;;5071234;28;20052;-74
2021/12/13 08:04:26;;;;;;;;;;;9.20;99.90;;;;;;5089712;28;20056;-74
2021/12/13 08:06:57;;;;;;;27.10;12.43;;;9.20;99.90;;;;;;5070275;28;20045;-74
2021/12/13 08:09:27;;;;;;;22.60;12.95;;;9.20;99.90;;;;;;5088993;28;20088;-74
2021/12/13 08:12:00;;;;;;;24.75;12.75;;;9.20;99.90;;;;;;5070790;28;20089;-74
2021/12/13 08:14:31;;;;;;;26.17;13.43;;;9.30;99.90;;;;;;5092790;28;20076;-75
2021/12/13 08:17:17;;;;;;;23.75;13.98;;;9.30;99.90;;;;;;5073858;28;20044;-74
2021/12/13 08:19:51;;;;;;;23.95;13.48;;;9.30;99.90;;;;;;5073945;28;20046;-74
2021/12/13 08:22:19;;;;;;;21.90;13.27;;;9.20;99.90;;;;;;5074422;28;20402;-74
2021/12/13 08:24:58;;;;;;;26.27;14.75;;;9.20;99.90;;;;;;5074343;28;20130;-74
2021/12/13 08:27:29;;;;;;;30.35;14.40;;;9.20;99.90;;;;;;5074522;28;20044;-73
2021/12/13 08:30:24;;;;;;;25.77;13.65;;;9.30;99.90;;;;;;5074067;28;20152;-73
2021/12/13 08:32:56;;;;;;;;;;;9.30;99.90;;;;;;5057094;28;20048;-73
2021/12/13 08:35:21;;;;;;;28.58;13.98;;;9.30;99.90;;;;;;5057084;28;20449;-73
2021/12/13 08:37:57;;;;;;;27.27;15.07;;;9.30;99.90;;;;;;5073972;28;20135;-73
2021/12/13 08:40:27;;;;;;;26.10;15.13;;;9.30;99.90;;;;;;5074209;28;20044;-73
2021/12/13 08:42:55;;;;;;;28.60;15.63;;;9.30;99.90;;;;;;5074302;28;20045;-73
2021/12/13 08:45:30;;;;;;;30.48;16.88;;;9.30;99.90;;;;;;5074008;28;20052;-73
2021/12/13 08:48:12;;;;;;;33.50;17.73;;;9.40;99.90;;;;;;5073921;28;20044;-73
2021/12/13 08:50:42;;;;;;;31.52;17.00;;;9.40;99.90;;;;;;5073926;28;20095;-73
2021/12/13 08:53:24;;;;;;;30.73;17.45;;;9.40;99.90;;;;;;5073544;28;20044;-73
2021/12/13 08:56:12;;;;;;;30.17;17.85;;;9.40;99.90;;;;;;5073786;28;20052;-73
2021/12/13 08:58:59;;;;;;;31.85;17.98;;;9.40;99.90;;;;;;5073497;28;20052;-73
2021/12/13 09:01:28;;;;;;;31.92;17.98;;;9.40;99.90;;;;;;5073544;28;20046;-73
2021/12/13 09:03:54;;;;;;;30.20;18.63;;;9.40;99.90;;;;;;5073636;28;20048;-73
2021/12/13 09:06:28;;;;;;;31.83;19.20;;;9.40;99.90;;;;;;5073354;28;20118;-73
2021/12/13 09:09:04;;;;;;;33.72;18.88;;;9.40;99.90;;;;;;5070736;28;20052;-73
2021/12/13 09:11:51;;;;;;;29.45;19.30;;;9.40;99.90;;;;;;5090041;28;21145;-73
2021/12/13 09:14:38;;;;;;;34.47;20.08;;;9.40;99.90;;;;;;5090234;28;20101;-73
2021/12/13 09:17:36;;;;;;;37.10;19.65;;;9.50;99.90;;;;;;5089754;28;20048;-73
2021/12/13 09:20:31;;;;;;;32.58;20.27;;;9.50;99.90;;;;;;5090093;28;20123;-73
2021/12/13 09:23:22;;;;;;;34.20;20.75;;;9.50;99.90;;;;;;5089336;28;20138;-73
2021/12/13 09:25:59;;;;;;;33.78;21.45;;;9.50;99.90;;;;;;5090263;28;20578;-73
2021/12/13 09:28:32;;;;;;;32.83;21.02;;;9.50;99.90;;;;;;5089948;28;20048;-73
2021/12/13 09:31:11;;;;;;;36.10;21.83;;;9.50;99.90;;;;;;5089745;28;20047;-73
2021/12/13 09:33:45;;;;;;;35.55;21.42;;;9.60;99.90;;;;;;5089868;28;20052;-73
2021/12/13 09:36:11;;;;;;;;;;;9.60;99.90;;;;;;5090584;28;20040;-73
2021/12/13 09:39:16;;;;;;;37.53;21.23;;;9.60;99.90;;;;;;5072119;28;19920;-73
2021/12/13 09:41:53;;;;;;;38.60;23.65;;;9.70;99.90;;;;;;5089793;28;20047;-73
2021/12/13 09:44:48;;;;;;;39.95;23.48;;;9.70;99.90;;;;;;5089599;28;20048;-73
2021/12/13 09:47:15;;;;;;;33.40;21.98;;;9.70;99.90;;;;;;5090422;28;20040;-73
2021/12/13 09:49:59;;;;;;;35.72;22.65;;;9.70;99.90;;;;;;5089588;28;20080;-73
2021/12/13 09:52:28;;;;;;;37.70;23.75;;;9.80;99.90;;;;;;5089847;28;20048;-73
2021/12/13 09:54:59;;;;;;;36.97;23.52;;;9.80;99.90;;;;;;5089726;28;20457;-73
2021/12/13 09:57:34;;;;;;;36.90;23.65;;;9.80;99.90;;;;;;5089451;28;20062;-73
2021/12/13 10:00:04;;;;;;;33.65;22.60;;;9.80;99.90;;;;;;5090897;28;20059;-73
2021/12/13 10:02:34;;;;;;;35.72;22.83;;;9.80;99.90;;;;;;5089209;28;20043;-73
2021/12/13 10:05:07;;;;;;;35.45;23.42;;;9.80;99.90;;;;;;5072194;28;20048;-73
2021/12/13 10:07:36;;;;;;;34.83;22.63;;;9.80;99.90;;;;;;5096428;28;20086;-73
2021/12/13 10:10:23;;;;;;;32.83;23.02;;;9.90;99.90;;;;;;5110623;28;20056;-73
2021/12/13 10:12:56;;;;;;;34.70;22.38;;;9.90;99.90;;;;;;5110509;28;20135;-73
2021/12/13 10:15:30;;;;;;;32.45;22.88;;;9.80;99.90;;;;;;5092700;28;20048;-73
2021/12/13 10:18:02;;;;;;;34.60;21.95;;;9.90;99.90;;;;;;5092399;28;20047;-73
2021/12/13 10:20:37;;;;;;;34.03;22.60;;;9.90;99.90;;;;;;5092933;28;20439;-73
2021/12/13 10:23:06;;;;;;;31.98;21.02;;;9.90;99.90;;;;;;5092464;28;20092;-73
2021/12/13 10:25:37;;;;;;;27.67;19.63;;;9.90;99.90;;;;;;5092361;28;20047;-73
2021/12/13 10:28:10;;;;;;;28.17;20.02;;;9.90;99.90;;;;;;5092377;28;20051;-73
2021/12/13 10:30:41;;;;;;;29.33;19.85;;;9.90;99.90;;;;;;5110547;28;20050;-73
2021/12/13 10:33:09;;;;;;;30.38;19.52;;;10.00;99.90;;;;;;5092587;28;20128;-73
2021/12/13 10:35:39;;;;;;;28.88;20.48;;;10.00;99.90;;;;;;5091579;28;20101;-73
2021/12/13 10:38:15;;;;;;;28.02;20.10;;;9.90;99.90;;;;;;5091863;28;20048;-73
2021/12/13 10:40:47;;;;;;;28.55;19.65;;;9.90;99.90;;;;;;5092288;28;20505;-73
2021/12/13 10:43:17;;;;;;;25.58;18.15;;;10.00;99.90;;;;;;5092159;28;20043;-73
2021/12/13 10:45:49;;;;;;;27.70;18.70;;;10.00;99.90;;;;;;5092020;28;20122;-73
2021/12/13 10:48:16;;;;;;;25.70;18.15;;;10.00;99.90;;;;;;5110352;28;20122;-73
2021/12/13 10:50:53;;;;;;;30.88;18.30;;;10.00;99.90;;;;;;5109490;28;20088;-73
2021/12/13 10:53:23;;;;;;;27.38;18.73;;;10.00;99.90;;;;;;5110307;28;20132;-73
2021/12/13 10:55:53;;;;;;;22.48;15.60;;;10.10;99.90;;;;;;5072054;28;20506;-73
2021/12/13 10:58:28;;;;;;;25.85;17.63;;;10.10;99.90;;;;;;5071677;28;20087;-73
2021/12/13 11:01:08;;;;;;;22.58;15.85;;;10.10;99.90;;;;;;5071654;28;20051;-73
2021/12/13 11:03:37;;;;;;;23.58;16.88;;;10.10;99.90;;;;;;5071439;28;20040;-73
2021/12/13 11:06:05;;;;;;;20.58;15.40;;;10.10;99.90;;;;;;5089771;28;20051;-73
2021/12/13 11:08:32;;;;;;;23.38;15.77;;;10.10;99.90;;;;;;5079925;28;20067;-73
2021/12/13 11:11:03;;;;;;;26.05;16.27;;;10.10;99.90;;;;;;5071541;28;20048;-73
2021/12/13 11:13:32;;;;;;;19.85;14.60;;;10.10;99.90;;;;;;5088148;28;20178;-73
2021/12/13 11:16:14;;;;;;;23.58;16.25;;;10.20;99.90;;;;;;5087646;28;20051;-73
2021/12/13 11:18:40;;;;;;;20.33;15.27;;;10.20;99.90;;;;;;5088066;28;20051;-73
2021/12/13 11:21:13;;;;;;;21.42;15.60;;;10.10;99.90;;;;;;5088256;28;20079;-73
2021/12/13 11:23:39;;;;;;;26.05;17.30;;;10.10;99.90;;;;;;5070890;28;20052;-73
2021/12/13 11:26:09;;;;;;;20.35;14.35;;;10.10;99.90;;;;;;5089534;28;20128;-73
2021/12/13 11:28:35;;;;;;;21.55;14.50;;;10.20;99.90;;;;;;5089078;28;20044;-73
2021/12/13 11:31:11;;;;;;;22.05;15.23;;;10.20;99.90;;;;;;5088384;28;20055;-73
2021/12/13 11:33:59;;;;;;;19.67;14.45;;;10.20;99.90;;;;;;5088269;28;20133;-73
2021/12/13 11:37:02;;;;;;;22.25;15.43;;;10.20;99.90;;;;;;5089115;28;20051;-73
2021/12/13 11:40:06;;;;;;;17.02;13.15;;;10.20;99.90;;;;;;5087794;28;20051;-73
2021/12/13 11:43:10;;;;;;;20.83;14.15;;;10.10;99.90;;;;;;5071112;28;20549;-73
2021/12/13 11:46:05;;;;;;;19.42;13.23;;;10.10;99.90;;;;;;5088314;28;20059;-73
2021/12/13 11:48:51;;;;;;;17.60;12.45;;;10.20;99.90;;;;;;5091598;28;20056;-73
2021/12/13 11:51:29;;;;;;;20.20;13.57;;;10.20;99.90;;;;;;5091781;28;20513;-73
2021/12/13 11:54:32;;;;;;;23.52;14.10;;;10.20;99.90;;;;;;5092106;28;20555;-73
2021/12/13 11:57:29;;;;;;;17.95;12.82;;;10.20;99.90;;;;;;5091198;28;20093;-74
2021/12/13 12:00:35;;;;;;;20.35;12.65;;;10.20;99.90;;;;;;5093083;28;20051;-73
2021/12/13 12:03:42;;;;;;;17.23;12.13;;;10.20;99.90;;;;;;5091291;28;20044;-74
2021/12/13 12:06:08;;;;;;;17.60;12.48;;;10.20;99.90;;;;;;5074964;28;20479;-73
2021/12/13 12:09:05;;;;;;;24.75;14.00;;;10.30;99.90;;;;;;5094813;28;20081;-73
2021/12/13 12:11:49;;;;;;;20.10;12.68;;;10.20;99.90;;;;;;5095448;28;20194;-73
2021/12/13 12:14:23;;;;;;;20.38;12.85;;;10.30;99.90;;;;;;5095441;28;20055;-73
2021/12/13 12:16:50;;;;;;;19.57;13.30;;;10.30;99.90;;;;;;5095094;28;20066;-73
2021/12/13 12:19:26;;;;;;;18.65;13.32;;;10.30;99.90;;;;;;5095135;28;20043;-73
2021/12/13 12:22:10;;;;;;;18.05;12.80;;;10.30;99.90;;;;;;5094509;28;20139;-73
2021/12/13 12:24:42;;;;;;;19.42;14.15;;;10.40;99.90;;;;;;5094781;28;20497;-73
2021/12/13 12:27:12;;;;;;;18.80;12.70;;;10.40;99.90;;;;;;5094291;28;20094;-73
2021/12/13 12:29:44;;;;;;;23.42;13.60;;;10.40;99.90;;;;;;5112980;28;20044;-73
2021/12/13 12:32:36;;;;;;;18.52;12.52;;;10.40;99.90;;;;;;5094415;28;20158;-73
2021/12/13 12:35:11;;;;;;;19.20;12.40;;;10.40;99.90;;;;;;5094275;28;20093;-73
2021/12/13 12:38:24;;;;;;;18.35;12.55;;;10.40;99.90;;;;;;5112541;28;20043;-73
2021/12/13 12:41:05;;;;;;;21.75;13.50;;;10.40;99.90;;;;;;5094244;28;20059;-73
2021/12/13 12:43:37;;;;;;;20.08;14.10;;;10.40;99.90;;;;;;5094104;28;20126;-73
2021/12/13 12:46:08;;;;;;;20.88;14.32;;;10.30;99.90;;;;;;5094239;28;20047;-74
2021/12/13 12:48:39;;;;;;;23.45;15.43;;;10.30;99.90;;;;;;5093950;28;20051;-73
2021/12/13 12:51:11;;;;;;;23.98;15.80;;;10.30;99.90;;;;;;5094433;28;20052;-73
2021/12/13 12:53:36;;;;;;;24.30;16.23;;;10.30;99.90;;;;;;5092275;28;20048;-73
2021/12/13 12:56:10;;;;;;;23.67;15.98;;;10.30;99.90;;;;;;5090856;28;20375;-73
2021/12/13 12:59:05;;;;;;;26.23;16.52;;;10.30;99.90;;;;;;5089971;28;20401;-73
2021/12/13 13:01:38;;;;;;;25.67;17.58;;;10.20;99.90;;;;;;5069589;28;20139;-73
2021/12/13 13:04:21;;;;;;;27.53;17.23;;;10.20;99.90;;;;;;5089735;28;20515;-73
2021/12/13 13:07:03;;;;;;;35.70;18.17;;;10.20;99.90;;;;;;5090358;28;20078;-73
2021/12/13 13:09:58;;;;;;;28.05;18.00;;;10.20;99.90;;;;;;5090266;28;20151;-73
2021/12/13 13:12:30;;;;;;;33.88;19.45;;;10.20;99.90;;;;;;5089881;28;20052;-73
2021/12/13 13:14:58;;;;;;;29.75;19.85;;;10.10;99.90;;;;;;5090716;28;20421;-74
2021/12/13 13:17:28;;;;;;;33.45;20.88;;;10.10;99.90;;;;;;5073385;28;20063;-73
2021/12/13 13:20:06;;;;;;;35.50;22.08;;;10.10;99.90;;;;;;5090010;28;20043;-73
2021/12/13 13:22:39;;;;;;;37.08;20.98;;;10.00;99.90;;;;;;5090224;28;20051;-73